Latest Weather Observations for Nambour

IDQ60801

Issued at 1:02 pm EST Saturday 16 December 2017 (issued every 30 minutes, with the page automatically refreshed every 10 minutes)

About weather observations | Map of weather stations | Latest weather observations for QLD | Other Formats
Station Details ID: 040988 Name: NAMBOUR DAFF - HILLSIDE Lat: -26.64 Lon: 152.94 Height: 53.24 m
Data from the previous 72 hours. | See also: Recent months at Nambour
Date/Time
EST
Temp
°C
App
Temp
°C
Dew
Point
°C
Rel
Hum
%
Delta-T
°C
Wind Press
QNH
hPa
Press
MSL
hPa
Rain since
9am
mm
Dir  Spd
km/h
Gust
km/h
Spd
kts
Gust
kts
16/01:00pm 27.9 27.7 17.7 53 6.5 ENE 15 24 8 13 1015.2 1014.9 0.0
16/12:30pm 28.2 28.7 18.3 55 6.3 E 13 24 7 13 1015.5 1015.2 0.0
16/12:00pm 27.8 28.0 17.6 53 6.4 ENE 13 20 7 11 1015.9 1015.6 0.0
16/11:30am 27.3 27.2 17.8 56 6.0 ENE 15 22 8 12 1016.2 1015.9 0.0
16/11:00am 27.6 28.5 17.5 54 6.4 ENE 9 19 5 10 1016.5 1016.2 0.0
16/10:30am 27.7 27.6 16.9 51 6.8 ENE 13 22 7 12 1016.6 1016.3 0.0
16/10:00am 27.5 27.3 17.7 55 6.2 NE 15 20 8 11 1016.8 1016.5 0.0
16/09:30am 26.8 26.3 17.0 55 6.1 ENE 15 20 8 11 1016.9 1016.6 0.0
16/09:00am 27.4 28.4 18.7 59 5.6 ENE 11 20 6 11 1016.8 1016.5 0.0
16/08:30am 26.3 26.4 17.4 58 5.6 ENE 13 20 7 11 1016.8 1016.5 0.0
16/08:00am 25.8 28.5 19.4 67 4.1 NE 4 9 2 5 1016.6 1016.3 0.0
16/07:30am 26.1 28.7 19.2 65 4.4 NE 4 9 2 5 1016.4 1016.1 0.0
16/07:00am 24.9 28.7 20.2 75 3.1 CALM 0 0 0 0 1016.3 1016.0 0.0
16/06:30am 24.0 27.8 20.1 79 2.5 CALM 0 0 0 0 1015.9 1015.6 0.0
16/06:00am 22.2 26.5 21.2 94 0.7 CALM 0 0 0 0 1015.7 1015.4 0.0
16/05:30am 21.6 25.7 20.8 95 0.5 CALM 0 0 0 0 1015.4 1015.1 0.0
16/05:00am 21.0 24.8 20.2 95 0.5 CALM 0 0 0 0 1014.9 1014.6 0.0
16/04:30am 20.8 24.5 20.0 95 0.5 CALM 0 0 0 0 1014.5 1014.2 0.0
16/04:00am 20.7 24.4 19.9 95 0.5 CALM 0 0 0 0 1014.2 1013.9 0.0
16/03:30am 20.8 24.5 20.0 95 0.5 CALM 0 0 0 0 1014.0 1013.7 0.0
16/03:00am 21.1 25.0 20.3 95 0.5 CALM 0 0 0 0 1014.0 1013.7 0.0
16/02:30am 20.6 24.1 19.6 94 0.6 CALM 0 0 0 0 1013.9 1013.6 0.0
16/02:00am 20.4 23.8 19.4 94 0.6 CALM 0 0 0 0 1014.0 1013.7 0.0
16/01:30am 20.8 24.4 19.8 94 0.6 CALM 0 0 0 0 1014.2 1013.9 0.0
16/01:00am 20.7 24.3 19.7 94 0.6 CALM 0 0 0 0 1014.2 1013.9 0.0
16/12:30am 20.7 24.3 19.7 94 0.6 CALM 0 0 0 0 1014.5 1014.2 0.0
16/12:00am 20.8 24.4 19.8 94 0.6 CALM 0 4 0 2 1014.8 1014.5 0.0
 
Date/Time
EST
Temp
°C
App
Temp
°C
Dew
Point
°C
Rel
Hum
%
Delta-T
°C
Wind Press
QNH
hPa
Press
MSL
hPa
Rain since
9am
mm
Dir  Spd
km/h
Gust
km/h
Spd
kts
Gust
kts
15/11:30pm 20.8 24.4 19.8 94 0.6 CALM 0 0 0 0 1015.0 1014.7 0.0
15/11:00pm 20.9 24.5 19.7 93 0.8 CALM 0 0 0 0 1015.1 1014.8 0.0
15/10:30pm 20.9 24.4 19.6 92 0.8 CALM 0 0 0 0 1015.1 1014.8 0.0
15/10:00pm 21.3 25.0 19.9 92 0.9 CALM 0 0 0 0 1015.1 1014.8 0.0
15/09:30pm 21.3 24.7 19.4 89 1.2 CALM 0 0 0 0 1015.2 1014.9 0.0
15/09:00pm 21.9 25.4 19.6 87 1.5 CALM 0 2 0 1 1015.0 1014.7 0.0
15/08:30pm 22.5 25.6 19.5 83 1.9 SW 2 4 1 2 1014.6 1014.3 0.0
15/08:00pm 23.4 26.5 19.5 79 2.5 NE 2 6 1 3 1014.4 1014.1 0.0
15/07:30pm 23.8 26.0 19.3 76 2.9 ENE 6 11 3 6 1014.2 1013.9 0.0
15/07:00pm 24.1 26.8 18.7 72 3.4 NE 2 6 1 3 1013.9 1013.6 0.0
15/06:30pm 24.6 26.5 18.5 69 3.9 ENE 6 9 3 5 1013.5 1013.2 0.0
15/06:00pm 25.2 26.4 18.2 65 4.4 ENE 9 15 5 8 1013.1 1012.8 0.0
15/05:30pm 25.6 26.4 17.3 60 5.2 NE 9 15 5 8 1012.5 1012.2 0.0
15/05:00pm 26.2 27.1 17.6 59 5.4 ENE 9 15 5 8 1012.2 1011.9 0.0
15/04:30pm 26.7 27.1 17.2 56 5.9 ENE 11 19 6 10 1012.0 1011.7 0.0
15/04:00pm 27.1 26.9 16.7 53 6.5 ENE 13 19 7 10 1011.8 1011.5 0.0
15/03:30pm 27.7 27.7 17.3 53 6.5 ENE 13 19 7 10 1011.7 1011.4 0.0
15/03:00pm 27.7 27.7 17.3 53 6.5 ENE 13 20 7 11 1011.7 1011.4 0.0
15/02:30pm 27.8 27.2 16.7 50 6.9 ENE 15 22 8 12 1011.9 1011.6 0.0
15/02:00pm 28.3 28.6 17.8 53 6.7 ENE 13 22 7 12 1011.9 1011.6 0.0
15/01:30pm 28.4 28.6 17.6 52 6.8 ENE 13 20 7 11 1012.2 1011.9 0.0
15/01:00pm 28.0 27.8 16.6 50 7.1 NE 13 20 7 11 1012.4 1012.1 0.0
15/12:30pm 28.2 28.0 16.8 50 7.1 NE 13 19 7 10 1012.7 1012.4 0.0
15/12:00pm 28.5 28.9 16.4 48 7.5 NE 9 20 5 11 1013.0 1012.7 0.0
15/11:30am 28.5 28.3 16.7 48 7.4 ENE 13 20 7 11 1013.2 1012.9 0.0
15/11:00am 28.1 28.0 16.1 48 7.4 ENE 11 20 6 11 1013.5 1013.2 0.0
15/10:30am 27.9 28.8 15.2 46 7.7 WSW 4 7 2 4 1013.6 1013.3 0.0
15/10:00am 27.4 27.8 14.8 46 7.6 ENE 6 9 3 5 1013.9 1013.6 0.0
15/09:30am 27.5 28.3 15.8 48 7.2 NE 6 9 3 5 1013.9 1013.6 0.0
15/09:00am 26.1 26.9 14.9 50 6.7 NE 4 9 2 5 1014.1 1013.8 0.0
15/08:30am 26.1 26.8 15.5 52 6.4 ENE 6 13 3 7 1014.2 1013.9 0.0
15/08:00am 26.0 28.3 17.6 60 5.3 ENE 2 6 1 3 1014.2 1013.9 0.0
15/07:30am 24.8 27.1 17.8 65 4.4 NE 2 7 1 4 1014.1 1013.8 0.0
15/07:00am 23.5 26.6 18.6 74 3.1 CALM 0 0 0 0 1013.9 1013.6 0.0
15/06:30am 22.2 25.1 18.2 78 2.5 CALM 0 0 0 0 1013.7 1013.4 0.0
15/06:00am 19.9 22.9 18.4 91 0.9 CALM 0 0 0 0 1013.5 1013.2 0.0
15/05:30am 18.7 21.5 17.9 95 0.5 CALM 0 0 0 0 1013.3 1013.0 0.0
15/05:00am 18.3 20.9 17.5 95 0.5 CALM 0 0 0 0 1012.8 1012.5 0.0
15/04:30am 18.5 21.1 17.5 94 0.6 CALM 0 0 0 0 1012.4 1012.1 0.0
15/04:00am 18.5 21.1 17.5 94 0.6 CALM 0 0 0 0 1012.1 1011.8 0.0
15/03:30am 18.8 21.5 17.8 94 0.6 CALM 0 0 0 0 1011.9 1011.6 0.0
15/03:00am 19.1 22.0 18.3 95 0.5 CALM 0 0 0 0 1011.9 1011.6 0.0
15/02:30am 18.6 21.2 17.4 93 0.7 CALM 0 0 0 0 1011.9 1011.6 0.0
15/02:00am 18.9 21.6 17.7 93 0.7 CALM 0 0 0 0 1011.9 1011.6 0.0
15/01:30am 19.1 22.0 18.1 94 0.6 CALM 0 0 0 0 1012.0 1011.7 0.0
15/01:00am 19.1 21.8 17.8 92 0.8 CALM 0 0 0 0 1012.1 1011.8 0.0
15/12:30am 19.4 22.3 18.1 92 0.8 CALM 0 0 0 0 1012.5 1012.2 0.0
15/12:00am 19.6 22.5 18.3 92 0.8 CALM 0 0 0 0 1012.9 1012.6 0.0
 
Date/Time
EST
Temp
°C
App
Temp
°C
Dew
Point
°C
Rel
Hum
%
Delta-T
°C
Wind Press
QNH
hPa
Press
MSL
hPa
Rain since
9am
mm
Dir  Spd
km/h
Gust
km/h
Spd
kts
Gust
kts
14/11:30pm 19.8 22.8 18.5 92 0.8 CALM 0 0 0 0 1013.0 1012.7 0.0
14/11:00pm 19.8 22.6 17.9 89 1.2 CALM 0 0 0 0 1013.2 1012.9 0.0
14/10:30pm 20.5 23.4 19.0 91 0.9 WSW 2 6 1 3 1013.4 1013.1 0.0
14/10:00pm 20.0 22.8 18.0 88 1.2 CALM 0 0 0 0 1013.5 1013.2 0.0
14/09:30pm 20.3 22.9 17.5 84 1.7 CALM 0 4 0 2 1013.6 1013.3 0.0
14/09:00pm 20.4 22.7 16.8 80 2.2 CALM 0 2 0 1 1013.5 1013.2 0.0
14/08:30pm 21.1 23.2 17.1 78 2.4 WSW 2 4 1 2 1013.5 1013.2 0.0
14/08:00pm 22.0 23.9 17.6 76 2.7 W 4 6 2 3 1013.3 1013.0 0.0
14/07:30pm 22.9 25.1 17.4 71 3.4 NE 2 4 1 2 1013.0 1012.7 0.0
14/07:00pm 23.4 25.2 17.4 69 3.7 NE 4 6 2 3 1012.9 1012.6 0.0
14/06:30pm 23.8 25.2 17.3 67 4.0 NE 6 11 3 6 1012.6 1012.3 0.0
14/06:00pm 24.4 24.9 16.6 61 4.8 E 9 15 5 8 1012.3 1012.0 0.0
14/05:30pm 25.2 24.4 15.2 54 6.0 ENE 13 20 7 11 1011.8 1011.5 0.0
14/05:00pm 26.1 25.8 15.5 52 6.5 ENE 11 15 6 8 1011.6 1011.3 0.0
14/04:30pm 26.6 26.0 14.7 48 7.2 ENE 11 17 6 9 1011.4 1011.1 0.0
14/04:00pm 26.8 25.8 13.5 44 7.9 ENE 11 19 6 10 1011.3 1011.0 0.0
14/03:30pm 27.2 26.4 13.9 44 7.9 ENE 11 17 6 9 1011.1 1010.8 0.0
14/03:00pm 27.2 26.4 13.9 44 7.9 ENE 11 17 6 9 1011.5 1011.2 0.0
14/02:30pm 27.6 27.1 14.9 45 7.7 ENE 11 20 6 11 1011.6 1011.3 0.0
14/02:00pm 27.4 26.7 14.4 45 7.8 E 11 20 6 11 1011.6 1011.3 0.0
14/01:30pm 27.7 27.6 15.0 45 7.7 ENE 9 19 5 10 1011.8 1011.5 0.0
14/01:00pm 27.3 26.6 14.3 45 7.8 ENE 11 20 6 11 1012.0 1011.7 0.0
14/12:30pm 27.4 26.7 14.4 45 7.8 ENE 11 20 6 11 1012.2 1011.9 0.0
14/12:00pm 26.8 26.8 15.2 49 7.0 E 9 20 5 11 1012.4 1012.1 0.0
14/11:30am 26.8 26.3 13.9 45 7.7 NE 9 24 5 13 1012.7 1012.4 0.0
14/11:00am 26.9 26.2 13.3 43 8.0 ENE 9 17 5 9 1012.9 1012.6 0.0
14/10:30am 26.7 25.6 13.1 43 8.0 ENE 11 20 6 11 1013.3 1013.0 0.0
14/10:00am 26.6 26.4 14.7 48 7.2 ENE 9 19 5 10 1013.5 1013.2 0.0
14/09:30am 25.8 26.1 14.9 51 6.6 E 7 13 4 7 1013.9 1013.6 0.0
14/09:00am 26.1 26.5 16.4 55 6.0 ENE 9 15 5 8 1014.0 1013.7 0.0
14/08:30am 25.1 26.9 16.5 59 5.3 SSE 2 4 1 2 1014.1 1013.8 0.0
14/08:00am 24.5 25.6 16.5 61 4.9 ESE 6 11 3 6 1014.1 1013.8 0.0
14/07:30am 24.1 25.9 18.3 70 3.7 SE 6 13 3 7 1014.2 1013.9 0.0
14/07:00am 21.2 24.1 19.1 88 1.3 ENE 2 4 1 2 1014.1 1013.8 0.0
14/06:30am 19.3 22.0 17.8 91 0.9 CALM 0 0 0 0 1014.1 1013.8 0.0
14/06:00am 18.0 20.4 17.0 94 0.6 CALM 0 0 0 0 1013.7 1013.4 0.0
14/05:30am 17.5 19.7 16.5 94 0.6 CALM 0 0 0 0 1013.5 1013.2 0.0
14/05:00am 17.0 19.0 15.9 93 0.6 CALM 0 0 0 0 1013.2 1012.9 0.0
14/04:30am 17.2 19.2 16.1 93 0.7 CALM 0 0 0 0 1013.0 1012.7 0.0
14/04:00am 17.4 19.5 16.3 93 0.7 CALM 0 0 0 0 1013.0 1012.7 0.0
14/03:30am 17.4 19.4 16.1 92 0.8 CALM 0 0 0 0 1013.0 1012.7 0.0
14/03:00am 17.6 19.7 16.3 92 0.8 CALM 0 0 0 0 1013.0 1012.7 0.0
14/02:30am 17.7 19.9 16.4 92 0.8 CALM 0 0 0 0 1013.1 1012.8 0.0
14/02:00am 18.2 20.6 16.9 92 0.8 CALM 0 0 0 0 1013.4 1013.1 0.0
14/01:30am 18.1 20.3 16.4 90 1.0 CALM 0 0 0 0 1013.6 1013.3 0.0
14/01:00am 18.5 20.8 16.8 90 1.0 CALM 0 0 0 0 1013.7 1013.4 0.0
14/12:30am 18.7 21.1 16.9 89 1.1 CALM 0 0 0 0 1014.1 1013.8 0.0
14/12:00am 18.9 21.3 16.9 88 1.2 CALM 0 0 0 0 1014.5 1014.2 0.0
 
Date/Time
EST
Temp
°C
App
Temp
°C
Dew
Point
°C
Rel
Hum
%
Delta-T
°C
Wind Press
QNH
hPa
Press
MSL
hPa
Rain since
9am
mm
Dir  Spd
km/h
Gust
km/h
Spd
kts
Gust
kts
13/11:30pm 19.2 21.6 17.0 87 1.3 CALM 0 0 0 0 1014.9 1014.6 0.0
13/11:00pm 19.6 22.1 17.2 86 1.5 CALM 0 0 0 0 1015.1 1014.8 0.0
13/10:30pm 19.7 22.0 16.7 83 1.8 CALM 0 0 0 0 1015.4 1015.1 0.0
13/10:00pm 20.0 22.5 17.2 84 1.7 CALM 0 0 0 0 1015.6 1015.3 0.0
13/09:30pm 20.0 22.5 17.2 84 1.7 CALM 0 0 0 0 1015.6 1015.3 0.0
13/09:00pm 20.2 22.5 16.8 81 2.1 CALM 0 0 0 0 1015.4 1015.1 0.0
13/08:30pm 20.6 22.8 16.6 78 2.4 CALM 0 0 0 0 1015.2 1014.9 0.0
13/08:00pm 21.4 23.7 16.8 75 2.8 CALM 0 0 0 0 1015.3 1015.0 0.0
13/07:30pm 21.9 24.1 16.4 71 3.3 CALM 0 0 0 0 1015.1 1014.8 0.0
13/07:00pm 22.6 24.3 16.2 67 3.9 SSE 2 4 1 2 1015.0 1014.7 0.0
13/06:30pm 23.5 24.8 16.1 63 4.5 ESE 4 9 2 5 1014.8 1014.5 0.0
13/06:00pm 24.1 24.4 15.9 60 5.0 E 9 13 5 7 1014.7 1014.4 0.0
13/05:30pm 24.8 25.5 16.2 58 5.3 E 7 13 4 7 1014.3 1014.0 0.0
13/05:00pm 24.5 24.5 16.2 60 5.1 E 11 19 6 10 1014.0 1013.7 0.0
13/04:30pm 25.3 25.1 15.6 55 5.9 E 11 17 6 9 1013.6 1013.3 0.0
13/04:00pm 26.1 25.1 15.5 52 6.4 ENE 15 30 8 16 1013.3 1013.0 0.0
13/03:30pm 26.8 27.0 15.8 51 6.7 E 9 17 5 9 1013.3 1013.0 0.0
13/03:00pm 26.8 26.6 15.8 51 6.7 E 11 20 6 11 1013.4 1013.1 0.0
13/02:30pm 26.8 25.8 15.5 50 6.9 E 15 24 8 13 1013.9 1013.6 0.0
13/02:00pm 27.1 26.4 15.5 49 7.1 E 13 26 7 14 1014.0 1013.7 0.0
13/01:30pm 27.5 26.8 16.5 51 6.8 E 15 22 8 12 1014.2 1013.9 0.0

Other Formats:

Comma delimited format used in spreadsheet applications
http://www.bom.gov.au/fwo/IDQ60801/IDQ60801.95572.axf

JavaScript Object Notation format (JSON) in row-major order
http://www.bom.gov.au/fwo/IDQ60801/IDQ60801.95572.json